createdAt,value
2022-12-23T00:00:14.976Z,82.42
2022-12-23T00:01:14.957Z,82.42
2022-12-23T00:02:15.042Z,82.43
2022-12-23T00:03:15.061Z,82.43
2022-12-23T00:04:15.015Z,82.46
2022-12-23T00:05:14.920Z,82.45
2022-12-23T00:06:14.916Z,82.44
2022-12-23T00:07:14.891Z,82.39
2022-12-23T00:08:14.897Z,82.42
2022-12-23T00:09:14.875Z,82.36
2022-12-23T00:10:14.854Z,82.31
2022-12-23T00:11:14.848Z,82.36
2022-12-23T00:12:14.866Z,82.37
2022-12-23T00:13:14.826Z,82.38
2022-12-23T00:14:20.922Z,82.39
2022-12-23T00:15:15.811Z,82.42
2022-12-23T00:16:14.847Z,82.44
2022-12-23T00:17:22.514Z,82.50
2022-12-23T00:18:15.795Z,82.53
2022-12-23T00:19:14.785Z,82.57
2022-12-23T00:20:14.747Z,82.60
2022-12-23T00:21:14.736Z,82.66
2022-12-23T00:22:14.725Z,82.74
2022-12-23T00:23:14.719Z,82.79
2022-12-23T00:24:14.724Z,82.87
2022-12-23T00:25:14.698Z,82.94
2022-12-23T00:26:14.697Z,83.00
2022-12-23T00:27:14.686Z,83.06
2022-12-23T00:28:14.732Z,83.09
2022-12-23T00:29:14.668Z,83.11
2022-12-23T00:30:14.643Z,83.15
2022-12-23T00:31:14.683Z,83.20
2022-12-23T00:32:14.681Z,83.29
2022-12-23T00:33:14.629Z,83.38
2022-12-23T00:34:14.598Z,83.42
2022-12-23T00:35:14.590Z,83.49
2022-12-23T00:36:14.658Z,83.61
2022-12-23T00:37:14.623Z,83.69
2022-12-23T00:38:14.570Z,83.75
2022-12-23T00:39:14.562Z,83.79
2022-12-23T00:40:14.541Z,83.83
2022-12-23T00:41:14.538Z,83.83
2022-12-23T00:42:14.505Z,83.83
2022-12-23T00:43:14.512Z,83.83
2022-12-23T00:44:14.496Z,83.83
2022-12-23T00:45:14.520Z,83.82
2022-12-23T00:46:14.527Z,83.78
2022-12-23T00:47:14.466Z,83.73
2022-12-23T00:48:14.438Z,83.73
2022-12-23T00:49:14.467Z,83.73
2022-12-23T00:50:14.425Z,83.76
2022-12-23T00:51:14.421Z,83.74
2022-12-23T00:52:14.433Z,83.74
2022-12-23T00:53:14.391Z,83.75
2022-12-23T00:54:14.389Z,83.72
2022-12-23T00:55:14.365Z,83.69
2022-12-23T00:56:14.354Z,83.69
2022-12-23T00:57:14.340Z,83.66
2022-12-23T00:58:14.337Z,83.64
2022-12-23T00:59:14.339Z,83.62
2022-12-23T01:00:14.308Z,83.62
2022-12-23T01:01:14.394Z,83.67
2022-12-23T01:02:14.394Z,83.68
2022-12-23T01:03:14.394Z,83.74
2022-12-23T01:04:14.286Z,83.78
2022-12-23T01:05:14.268Z,83.82
2022-12-23T01:06:14.282Z,83.87
2022-12-23T01:07:14.240Z,83.95
2022-12-23T01:08:14.247Z,83.94
2022-12-23T01:09:14.229Z,83.96
2022-12-23T01:10:14.232Z,83.98
2022-12-23T01:11:14.215Z,83.99
2022-12-23T01:12:14.220Z,84.01
2022-12-23T01:13:14.200Z,84.04
2022-12-23T01:14:14.173Z,84.08
2022-12-23T01:15:14.160Z,84.10
2022-12-23T01:16:17.554Z,84.10
2022-12-23T01:17:14.254Z,84.13
2022-12-23T01:18:14.128Z,84.12
2022-12-23T01:19:14.126Z,84.16
2022-12-23T01:20:14.089Z,84.17
2022-12-23T01:21:14.089Z,84.18
2022-12-23T01:22:14.079Z,84.18
2022-12-23T01:23:14.054Z,84.21
2022-12-23T01:24:14.099Z,84.23
2022-12-23T01:25:14.058Z,84.23
2022-12-23T01:26:14.729Z,84.27
2022-12-23T01:27:14.018Z,84.32
2022-12-23T01:28:14.008Z,84.32
2022-12-23T01:29:14.008Z,84.33
2022-12-23T01:30:14.005Z,84.38
2022-12-23T01:31:14.018Z,84.44
2022-12-23T01:32:14.030Z,84.50
2022-12-23T01:33:13.967Z,84.55
2022-12-23T01:34:13.964Z,84.60
2022-12-23T01:35:13.928Z,84.63
2022-12-23T01:36:13.930Z,84.70
2022-12-23T01:37:13.916Z,84.75
2022-12-23T01:38:13.905Z,84.81
2022-12-23T01:39:13.903Z,84.87
2022-12-23T01:40:13.908Z,84.87
2022-12-23T01:41:13.859Z,84.94
2022-12-23T01:42:13.860Z,84.96
2022-12-23T01:43:13.850Z,84.98
2022-12-23T01:44:13.840Z,85.02
2022-12-23T01:45:13.859Z,85.04
2022-12-23T01:46:13.850Z,85.09
2022-12-23T01:47:13.803Z,85.12
2022-12-23T01:48:13.802Z,85.16
2022-12-23T01:49:13.779Z,85.21
2022-12-23T01:50:13.765Z,85.22
2022-12-23T01:51:13.772Z,85.27
2022-12-23T01:52:13.746Z,85.33
2022-12-23T01:53:13.729Z,85.41
2022-12-23T01:54:13.739Z,85.47
2022-12-23T01:55:13.733Z,85.47
2022-12-23T01:56:13.722Z,85.50
2022-12-23T01:57:13.683Z,85.52
2022-12-23T01:58:13.708Z,85.51
2022-12-23T01:59:13.670Z,85.52
2022-12-23T02:00:13.684Z,85.52
2022-12-23T02:01:13.665Z,85.50
2022-12-23T02:02:13.802Z,85.50
2022-12-23T02:03:13.628Z,85.47
2022-12-23T02:04:13.617Z,85.47
2022-12-23T02:05:13.607Z,85.45
2022-12-23T02:06:13.617Z,85.50
2022-12-23T02:07:13.578Z,85.50
2022-12-23T02:08:13.567Z,85.48
2022-12-23T02:09:13.552Z,85.43
2022-12-23T02:10:13.540Z,85.40
2022-12-23T02:11:13.555Z,85.35
2022-12-23T02:12:13.527Z,85.34
2022-12-23T02:13:13.515Z,85.31
2022-12-23T02:14:13.511Z,85.27
2022-12-23T02:15:13.503Z,85.24
2022-12-23T02:16:13.484Z,85.22
2022-12-23T02:17:13.517Z,85.22
2022-12-23T02:18:13.503Z,85.18
2022-12-23T02:19:13.449Z,85.14
2022-12-23T02:20:13.454Z,85.11
2022-12-23T02:21:13.455Z,85.11
2022-12-23T02:22:13.425Z,85.13
2022-12-23T02:23:13.455Z,85.12
2022-12-23T02:24:21.213Z,85.14
2022-12-23T02:25:13.618Z,85.13
2022-12-23T02:26:13.509Z,85.10
2022-12-23T02:27:13.413Z,85.09
2022-12-23T02:28:13.438Z,85.11
2022-12-23T02:29:13.429Z,85.08
2022-12-23T02:30:13.397Z,85.05
2022-12-23T02:31:13.503Z,85.02
2022-12-23T02:32:13.345Z,84.99
2022-12-23T02:33:13.361Z,84.97
2022-12-23T02:34:13.537Z,84.96
2022-12-23T02:35:13.343Z,84.97
2022-12-23T02:36:13.333Z,84.95
2022-12-23T02:37:13.409Z,84.96
2022-12-23T02:38:13.345Z,84.96
2022-12-23T02:39:13.370Z,84.94
2022-12-23T02:40:13.324Z,84.93
2022-12-23T02:41:13.429Z,84.90
2022-12-23T02:42:13.589Z,84.89
2022-12-23T02:43:13.221Z,84.90
2022-12-23T02:44:13.272Z,84.90
2022-12-23T02:45:13.204Z,84.92
2022-12-23T02:46:13.512Z,84.94
2022-12-23T02:47:13.249Z,84.93
2022-12-23T02:48:13.171Z,84.94
2022-12-23T02:49:13.189Z,84.94
2022-12-23T02:50:13.154Z,84.90
2022-12-23T02:51:13.132Z,84.88
2022-12-23T02:52:13.187Z,84.86
2022-12-23T02:53:13.155Z,84.79
2022-12-23T02:54:13.116Z,84.76
2022-12-23T02:55:13.137Z,84.72
2022-12-23T02:56:13.141Z,84.69
2022-12-23T02:57:13.154Z,84.71
2022-12-23T02:58:13.095Z,84.70
2022-12-23T02:59:13.117Z,84.70
2022-12-23T03:00:13.078Z,84.68
2022-12-23T03:01:13.130Z,84.71
2022-12-23T03:02:13.288Z,84.73
2022-12-23T03:03:13.147Z,84.70
2022-12-23T03:04:13.004Z,84.71
2022-12-23T03:05:13.016Z,84.73
2022-12-23T03:06:13.007Z,84.75
2022-12-23T03:07:18.329Z,84.75
2022-12-23T03:08:13.986Z,84.76
2022-12-23T03:09:12.950Z,84.74
2022-12-23T03:10:12.943Z,84.70
2022-12-23T03:11:12.900Z,84.66
2022-12-23T03:12:12.876Z,84.64
2022-12-23T03:13:12.877Z,84.60
2022-12-23T03:14:12.873Z,84.57
2022-12-23T03:15:12.868Z,84.55
2022-12-23T03:16:12.940Z,84.53
2022-12-23T03:17:12.830Z,84.51
2022-12-23T03:18:12.843Z,84.48
2022-12-23T03:19:12.810Z,84.46
2022-12-23T03:20:12.875Z,84.45
2022-12-23T03:21:12.818Z,84.38
2022-12-23T03:22:12.768Z,84.33
2022-12-23T03:23:12.779Z,84.30
2022-12-23T03:24:12.790Z,84.26
2022-12-23T03:25:12.763Z,84.22
2022-12-23T03:26:12.736Z,84.22
2022-12-23T03:27:12.776Z,84.20
2022-12-23T03:28:12.740Z,84.18
2022-12-23T03:29:12.691Z,84.13
2022-12-23T03:30:12.683Z,84.13
2022-12-23T03:31:12.755Z,84.11
2022-12-23T03:32:12.692Z,84.08
2022-12-23T03:33:12.647Z,84.04
2022-12-23T03:34:12.648Z,84.00
2022-12-23T03:35:12.699Z,83.99
2022-12-23T03:36:12.614Z,84.00
2022-12-23T03:37:12.631Z,83.99
2022-12-23T03:38:12.588Z,83.99
2022-12-23T03:39:12.589Z,83.97
2022-12-23T03:40:12.569Z,83.95
2022-12-23T03:41:12.596Z,83.93
2022-12-23T03:42:12.578Z,83.94
2022-12-23T03:43:12.559Z,83.93
2022-12-23T03:44:12.553Z,83.91
2022-12-23T03:45:37.674Z,83.90
2022-12-23T03:46:13.575Z,83.89
2022-12-23T03:47:12.526Z,83.88
2022-12-23T03:48:12.511Z,83.85
2022-12-23T03:49:12.537Z,83.84
2022-12-23T03:50:12.490Z,83.79
2022-12-23T03:51:12.505Z,83.73
2022-12-23T03:52:17.279Z,83.69
2022-12-23T03:53:13.488Z,83.63
2022-12-23T03:54:12.437Z,83.60
2022-12-23T03:55:12.422Z,83.52
2022-12-23T03:56:12.396Z,83.48
2022-12-23T03:57:12.422Z,83.44
2022-12-23T03:58:12.380Z,83.43
2022-12-23T03:59:12.393Z,83.41
2022-12-23T04:00:12.375Z,83.39
2022-12-23T04:01:12.402Z,83.37
2022-12-23T04:02:12.396Z,83.36
2022-12-23T04:03:12.379Z,83.34
2022-12-23T04:04:12.394Z,83.35
2022-12-23T04:05:12.304Z,83.36
2022-12-23T04:06:12.316Z,83.38
2022-12-23T04:07:12.299Z,83.41
2022-12-23T04:08:12.291Z,83.42
2022-12-23T04:09:16.651Z,83.47
2022-12-23T04:10:13.278Z,83.49
2022-12-23T04:11:12.255Z,83.54
2022-12-23T04:12:12.267Z,83.58
2022-12-23T04:13:12.340Z,83.62
2022-12-23T04:14:12.222Z,83.67
2022-12-23T04:15:13.235Z,83.70
2022-12-23T04:16:12.226Z,83.71
2022-12-23T04:17:12.185Z,83.73
2022-12-23T04:18:12.174Z,83.75
2022-12-23T04:19:12.166Z,83.75
2022-12-23T04:20:12.169Z,83.79
2022-12-23T04:21:12.130Z,83.79
2022-12-23T04:22:12.117Z,83.80
2022-12-23T04:23:12.127Z,83.80
2022-12-23T04:24:12.144Z,83.79
2022-12-23T04:25:12.126Z,83.78
2022-12-23T04:26:12.095Z,83.79
2022-12-23T04:27:12.057Z,83.81
2022-12-23T04:28:12.077Z,83.83
2022-12-23T04:29:12.095Z,83.86
2022-12-23T04:30:12.077Z,83.87
2022-12-23T04:31:12.117Z,83.92
2022-12-23T04:32:12.046Z,83.94
2022-12-23T04:33:12.013Z,83.98
2022-12-23T04:34:12.029Z,84.00
2022-12-23T04:35:12.010Z,84.02
2022-12-23T04:36:12.027Z,84.04
2022-12-23T04:37:11.977Z,84.04
2022-12-23T04:38:11.986Z,84.03
2022-12-23T04:39:12.030Z,84.03
2022-12-23T04:40:11.955Z,84.02
2022-12-23T04:41:11.946Z,84.03
2022-12-23T04:42:11.954Z,84.04
2022-12-23T04:43:11.919Z,84.06
2022-12-23T04:44:11.901Z,84.08
2022-12-23T04:45:11.968Z,84.08
2022-12-23T04:46:11.928Z,84.03
2022-12-23T04:47:11.885Z,84.03
2022-12-23T04:48:11.867Z,84.05
2022-12-23T04:49:11.880Z,84.06
2022-12-23T04:50:11.870Z,84.07
2022-12-23T04:51:11.839Z,84.07
2022-12-23T04:52:11.823Z,84.07
2022-12-23T04:53:11.822Z,84.06
2022-12-23T04:54:11.782Z,84.07
2022-12-23T04:55:11.785Z,84.08
2022-12-23T04:56:11.785Z,84.11
2022-12-23T04:57:11.772Z,84.13
2022-12-23T04:58:11.816Z,84.16
2022-12-23T04:59:11.771Z,84.23
2022-12-23T05:00:11.752Z,84.24
2022-12-23T05:01:11.806Z,84.27
2022-12-23T05:02:11.884Z,84.29
2022-12-23T05:03:11.872Z,84.30
2022-12-23T05:04:11.661Z,84.31
2022-12-23T05:05:11.658Z,84.32
2022-12-23T05:06:11.661Z,84.34
2022-12-23T05:07:11.633Z,84.37
2022-12-23T05:08:11.617Z,84.40
2022-12-23T05:09:11.615Z,84.40
2022-12-23T05:10:11.598Z,84.40
2022-12-23T05:11:11.592Z,84.39
2022-12-23T05:12:11.558Z,84.38
2022-12-23T05:13:11.544Z,84.35
2022-12-23T05:14:11.540Z,84.35
2022-12-23T05:15:11.530Z,84.34
2022-12-23T05:16:11.546Z,84.33
2022-12-23T05:17:11.529Z,84.30
2022-12-23T05:18:11.492Z,84.29
2022-12-23T05:19:11.541Z,84.25
2022-12-23T05:20:11.465Z,84.20
2022-12-23T05:21:11.456Z,84.17
2022-12-23T05:22:11.449Z,84.16
2022-12-23T05:23:11.448Z,84.15
2022-12-23T05:24:11.424Z,84.15
2022-12-23T05:25:11.439Z,84.14
2022-12-23T05:26:11.432Z,84.16
2022-12-23T05:27:11.406Z,84.12
2022-12-23T05:28:11.403Z,84.13
2022-12-23T05:29:11.362Z,84.11
2022-12-23T05:30:11.362Z,84.08
2022-12-23T05:31:11.446Z,84.07
2022-12-23T05:32:11.497Z,84.08
2022-12-23T05:33:11.351Z,84.06
2022-12-23T05:34:11.367Z,84.04
2022-12-23T05:35:11.309Z,84.03
2022-12-23T05:36:11.299Z,83.99
2022-12-23T05:37:11.295Z,83.95
2022-12-23T05:38:11.285Z,83.89
2022-12-23T05:39:11.267Z,83.86
2022-12-23T05:40:11.266Z,83.82
2022-12-23T05:41:11.297Z,83.78
2022-12-23T05:42:11.242Z,83.77
2022-12-23T05:43:11.220Z,83.77
2022-12-23T05:44:11.216Z,83.72
2022-12-23T05:45:11.216Z,83.71
2022-12-23T05:46:11.247Z,83.69
2022-12-23T05:47:11.196Z,83.69
2022-12-23T05:48:11.166Z,83.67
2022-12-23T05:49:11.171Z,83.67
2022-12-23T05:50:11.163Z,83.67
2022-12-23T05:51:11.135Z,83.66
2022-12-23T05:52:11.124Z,83.65
2022-12-23T05:53:11.135Z,83.68
2022-12-23T05:54:11.094Z,83.67
2022-12-23T05:55:11.122Z,83.65
2022-12-23T05:56:11.094Z,83.61
2022-12-23T05:57:11.060Z,83.59
2022-12-23T05:58:11.048Z,83.54
2022-12-23T05:59:11.085Z,83.53
2022-12-23T06:00:11.058Z,83.52
2022-12-23T06:01:11.036Z,83.54
2022-12-23T06:02:11.209Z,83.53
2022-12-23T06:03:11.221Z,83.52
2022-12-23T06:04:11.132Z,83.50
2022-12-23T06:05:10.990Z,83.47
2022-12-23T06:06:10.969Z,83.44
2022-12-23T06:07:10.977Z,83.46
2022-12-23T06:08:10.960Z,83.46
2022-12-23T06:09:10.946Z,83.47
2022-12-23T06:10:10.915Z,83.48
2022-12-23T06:11:10.919Z,83.48
2022-12-23T06:12:10.919Z,83.52
2022-12-23T06:13:10.896Z,83.54
2022-12-23T06:14:10.878Z,83.55
2022-12-23T06:15:10.858Z,83.61
2022-12-23T06:16:10.926Z,83.63
2022-12-23T06:17:10.883Z,83.65
2022-12-23T06:18:10.830Z,83.68
2022-12-23T06:19:10.827Z,83.70
2022-12-23T06:20:17.941Z,83.71
2022-12-23T06:21:11.850Z,83.74
2022-12-23T06:22:10.806Z,83.75
2022-12-23T06:23:10.796Z,83.77
2022-12-23T06:24:10.769Z,83.74
2022-12-23T06:25:10.772Z,83.73
2022-12-23T06:26:10.744Z,83.73
2022-12-23T06:27:10.754Z,83.72
2022-12-23T06:28:10.828Z,83.73
2022-12-23T06:29:10.718Z,83.74
2022-12-23T06:30:10.696Z,83.74
2022-12-23T06:31:10.720Z,83.74
2022-12-23T06:32:10.733Z,83.71
2022-12-23T06:33:10.679Z,83.72
2022-12-23T06:34:10.678Z,83.72
2022-12-23T06:35:10.653Z,83.69
2022-12-23T06:36:10.635Z,83.68
2022-12-23T06:37:10.628Z,83.71
2022-12-23T06:38:12.446Z,83.72
2022-12-23T06:39:10.636Z,83.71
2022-12-23T06:40:10.610Z,83.71
2022-12-23T06:41:10.583Z,83.68
2022-12-23T06:42:10.572Z,83.66
2022-12-23T06:43:10.560Z,83.69
2022-12-23T06:44:10.579Z,83.67
2022-12-23T06:45:10.549Z,83.69
2022-12-23T06:46:10.588Z,83.70
2022-12-23T06:47:10.560Z,83.72
2022-12-23T06:48:10.512Z,83.79
2022-12-23T06:49:13.369Z,83.81
2022-12-23T06:50:10.481Z,83.87
2022-12-23T06:51:10.471Z,83.89
2022-12-23T06:52:10.467Z,83.93
2022-12-23T06:53:10.487Z,83.97
2022-12-23T06:54:10.462Z,83.96
2022-12-23T06:55:10.437Z,84.02
2022-12-23T06:56:10.425Z,84.03
2022-12-23T06:57:10.400Z,84.03
2022-12-23T06:58:10.406Z,84.04
2022-12-23T06:59:10.395Z,84.06
2022-12-23T07:00:10.393Z,84.10
2022-12-23T07:01:10.580Z,84.14
2022-12-23T07:02:10.508Z,84.16
2022-12-23T07:03:10.443Z,84.19
2022-12-23T07:04:10.429Z,84.22
2022-12-23T07:05:10.335Z,84.26
2022-12-23T07:06:10.310Z,84.28
2022-12-23T07:07:10.291Z,84.30
2022-12-23T07:08:10.290Z,84.31
2022-12-23T07:09:10.274Z,84.35
2022-12-23T07:10:10.311Z,84.36
2022-12-23T07:11:10.278Z,84.37
2022-12-23T07:12:10.263Z,84.39
2022-12-23T07:13:10.257Z,84.41
2022-12-23T07:14:10.228Z,84.41
2022-12-23T07:15:10.257Z,84.40
2022-12-23T07:16:10.247Z,84.44
2022-12-23T07:17:10.258Z,84.50
2022-12-23T07:18:10.176Z,84.50
2022-12-23T07:19:10.174Z,84.49
2022-12-23T07:20:10.170Z,84.50
2022-12-23T07:21:19.761Z,84.52
2022-12-23T07:22:11.141Z,84.48
2022-12-23T07:23:17.946Z,84.47
2022-12-23T07:24:10.113Z,84.43
2022-12-23T07:25:10.121Z,84.41
2022-12-23T07:26:10.087Z,84.37
2022-12-23T07:27:10.072Z,84.32
2022-12-23T07:28:10.083Z,84.29
2022-12-23T07:29:10.079Z,84.29
2022-12-23T07:30:10.111Z,84.27
2022-12-23T07:31:10.092Z,84.25
2022-12-23T07:32:10.095Z,84.22
2022-12-23T07:33:10.032Z,84.18
2022-12-23T07:34:10.030Z,84.16
2022-12-23T07:35:09.991Z,84.14
2022-12-23T07:36:10.043Z,84.12
2022-12-23T07:37:09.980Z,84.09
2022-12-23T07:38:09.977Z,84.09
2022-12-23T07:39:09.972Z,84.13
2022-12-23T07:40:09.939Z,84.17
2022-12-23T07:41:09.934Z,84.17
2022-12-23T07:42:42.804Z,84.17
2022-12-23T07:43:10.945Z,84.13
2022-12-23T07:44:09.896Z,84.13
2022-12-23T07:45:09.964Z,84.15
2022-12-23T07:46:09.975Z,84.16
2022-12-23T07:47:09.946Z,84.11
2022-12-23T07:48:09.866Z,84.06
2022-12-23T07:49:09.843Z,84.00
2022-12-23T07:50:09.881Z,83.98
2022-12-23T07:51:09.850Z,83.97
2022-12-23T07:52:09.811Z,83.93
2022-12-23T07:53:09.805Z,83.91
2022-12-23T07:54:09.839Z,83.90
2022-12-23T07:55:09.833Z,83.86
2022-12-23T07:56:09.828Z,83.84
2022-12-23T07:57:09.791Z,83.77
2022-12-23T07:58:09.743Z,83.74
2022-12-23T07:59:09.738Z,83.73
2022-12-23T08:00:09.742Z,83.73
2022-12-23T08:01:09.798Z,83.68
2022-12-23T08:02:09.907Z,83.68
2022-12-23T08:03:09.759Z,83.69
2022-12-23T08:04:09.706Z,83.69
2022-12-23T08:05:09.731Z,83.69
2022-12-23T08:06:09.648Z,83.69
2022-12-23T08:07:09.640Z,83.67
2022-12-23T08:08:09.628Z,83.69
2022-12-23T08:09:09.647Z,83.67
2022-12-23T08:10:09.620Z,83.66
2022-12-23T08:11:09.602Z,83.65
2022-12-23T08:12:09.608Z,83.66
2022-12-23T08:13:09.600Z,83.61
2022-12-23T08:14:09.571Z,83.58
2022-12-23T08:15:09.592Z,83.54
2022-12-23T08:16:09.594Z,83.51
2022-12-23T08:17:09.572Z,83.47
2022-12-23T08:18:09.525Z,83.43
2022-12-23T08:19:09.536Z,83.41
2022-12-23T08:20:09.529Z,83.35
2022-12-23T08:21:09.495Z,83.30
2022-12-23T08:22:09.503Z,83.26
2022-12-23T08:23:09.466Z,83.23
2022-12-23T08:24:09.461Z,83.22
2022-12-23T08:25:09.478Z,83.21
2022-12-23T08:26:09.464Z,83.20
2022-12-23T08:27:09.427Z,83.18
2022-12-23T08:28:09.411Z,83.15
2022-12-23T08:29:09.440Z,83.09
2022-12-23T08:30:09.413Z,83.07
2022-12-23T08:31:09.475Z,82.98
2022-12-23T08:32:09.377Z,82.91
2022-12-23T08:33:09.360Z,82.86
2022-12-23T08:34:09.363Z,82.80
2022-12-23T08:35:09.383Z,82.75
2022-12-23T08:36:09.354Z,82.73
2022-12-23T08:37:09.351Z,82.72
2022-12-23T08:38:09.314Z,82.70
2022-12-23T08:39:09.359Z,82.67
2022-12-23T08:40:09.286Z,82.67
2022-12-23T08:41:09.294Z,82.67
2022-12-23T08:42:09.266Z,82.60
2022-12-23T08:43:09.263Z,82.51
2022-12-23T08:44:09.310Z,82.44
2022-12-23T08:45:09.238Z,82.40
2022-12-23T08:46:09.324Z,82.40
2022-12-23T08:47:09.330Z,82.36
2022-12-23T08:48:09.463Z,82.34
2022-12-23T08:49:09.207Z,82.35
2022-12-23T08:50:09.209Z,82.51
2022-12-23T08:51:09.180Z,82.48
2022-12-23T08:52:09.184Z,82.36
2022-12-23T08:53:09.146Z,82.30
2022-12-23T08:54:09.138Z,82.22
2022-12-23T08:55:09.141Z,82.21
2022-12-23T08:56:09.124Z,82.21
2022-12-23T08:57:09.099Z,82.22
2022-12-23T08:58:09.096Z,82.19
2022-12-23T08:59:13.354Z,82.15
2022-12-23T09:00:10.087Z,82.13
2022-12-23T09:01:09.115Z,82.10
2022-12-23T09:02:09.272Z,82.10
2022-12-23T09:03:09.184Z,82.09
2022-12-23T09:04:09.023Z,82.77
2022-12-23T09:05:09.230Z,84.59
2022-12-23T09:06:09.036Z,85.53
2022-12-23T09:07:08.994Z,85.68
2022-12-23T09:08:08.989Z,85.58
2022-12-23T09:09:08.979Z,85.56
2022-12-23T09:10:08.955Z,85.16
2022-12-23T09:11:09.156Z,84.62
2022-12-23T09:12:08.936Z,84.26
2022-12-23T09:13:08.928Z,83.96
2022-12-23T09:14:08.946Z,83.07
2022-12-23T09:15:08.895Z,82.91
2022-12-23T09:16:08.994Z,83.21
2022-12-23T09:17:08.877Z,82.33
2022-12-23T09:18:08.864Z,81.93
2022-12-23T09:19:08.889Z,81.74
2022-12-23T09:20:08.859Z,81.62
2022-12-23T09:21:08.843Z,81.48
2022-12-23T09:22:08.845Z,81.42
2022-12-23T09:23:08.864Z,81.34
2022-12-23T09:24:08.812Z,81.42
2022-12-23T09:25:08.786Z,81.37
2022-12-23T09:26:08.787Z,81.44
2022-12-23T09:27:08.797Z,81.37
2022-12-23T09:28:08.760Z,81.40
2022-12-23T09:29:08.767Z,81.40
2022-12-23T09:30:08.762Z,81.37
2022-12-23T09:31:09.481Z,81.37
2022-12-23T09:32:08.754Z,81.29
2022-12-23T09:33:08.722Z,81.31
2022-12-23T09:34:08.687Z,81.35
2022-12-23T09:35:08.721Z,81.32
2022-12-23T09:36:08.683Z,81.30
2022-12-23T09:37:08.707Z,81.34
2022-12-23T09:38:08.650Z,81.34
2022-12-23T09:39:08.666Z,81.37
2022-12-23T09:40:08.625Z,81.38
2022-12-23T09:41:08.628Z,81.36
2022-12-23T09:42:08.644Z,81.36
2022-12-23T09:43:08.613Z,81.37
2022-12-23T09:44:08.592Z,81.40
2022-12-23T09:45:08.615Z,81.38
2022-12-23T09:46:08.614Z,81.35
2022-12-23T09:47:08.555Z,81.35
2022-12-23T09:48:08.626Z,81.33
2022-12-23T09:49:08.539Z,81.31
2022-12-23T09:50:08.531Z,81.30
2022-12-23T09:51:08.505Z,81.28
2022-12-23T09:52:08.508Z,81.26
2022-12-23T09:53:08.496Z,81.26
2022-12-23T09:54:13.405Z,81.26
2022-12-23T09:55:09.469Z,81.34
2022-12-23T09:56:08.478Z,81.40
2022-12-23T09:57:08.455Z,81.41
2022-12-23T09:58:08.483Z,81.47
2022-12-23T09:59:08.421Z,81.50
2022-12-23T10:00:08.411Z,81.44
2022-12-23T10:01:08.418Z,81.41
2022-12-23T10:02:08.612Z,81.43
2022-12-23T10:03:08.664Z,81.25
2022-12-23T10:04:08.412Z,81.19
2022-12-23T10:05:08.366Z,81.17
2022-12-23T10:06:08.341Z,81.19
2022-12-23T10:07:08.347Z,81.14
2022-12-23T10:08:08.356Z,81.11
2022-12-23T10:09:08.364Z,81.05
2022-12-23T10:10:08.296Z,81.00
2022-12-23T10:11:08.301Z,80.98
2022-12-23T10:12:08.281Z,80.97
2022-12-23T10:13:08.281Z,80.97
2022-12-23T10:14:08.269Z,80.96
2022-12-23T10:15:08.242Z,80.94
2022-12-23T10:16:08.278Z,80.96
2022-12-23T10:17:08.221Z,81.01
2022-12-23T10:18:08.235Z,80.99
2022-12-23T10:19:08.235Z,80.97
2022-12-23T10:20:08.183Z,80.92
2022-12-23T10:21:08.185Z,80.91
2022-12-23T10:22:08.162Z,80.92
2022-12-23T10:23:08.163Z,80.96
2022-12-23T10:24:08.191Z,80.97
2022-12-23T10:25:08.138Z,80.95
2022-12-23T10:26:08.142Z,80.91
2022-12-23T10:27:08.228Z,80.92
2022-12-23T10:28:08.117Z,80.90
2022-12-23T10:29:08.198Z,80.78
2022-12-23T10:30:33.752Z,80.73
2022-12-23T10:31:39.724Z,80.68
2022-12-23T10:32:09.149Z,80.56
2022-12-23T10:33:08.041Z,80.52
2022-12-23T10:34:08.071Z,80.52
2022-12-23T10:35:08.077Z,80.49
2022-12-23T10:36:08.078Z,80.40
2022-12-23T10:37:08.045Z,80.32
2022-12-23T10:38:08.937Z,80.28
2022-12-23T10:39:08.028Z,80.26
2022-12-23T10:40:07.999Z,80.23
2022-12-23T10:41:09.524Z,80.16
2022-12-23T10:42:07.956Z,80.07
2022-12-23T10:43:07.956Z,79.99
2022-12-23T10:44:07.949Z,80.01
2022-12-23T10:45:07.929Z,79.85
2022-12-23T10:46:07.924Z,79.69
2022-12-23T10:47:08.058Z,79.72
2022-12-23T10:48:13.656Z,79.66
2022-12-23T10:49:08.895Z,79.67
2022-12-23T10:50:07.885Z,79.45
2022-12-23T10:51:07.915Z,79.28
2022-12-23T10:52:07.834Z,79.09
2022-12-23T10:53:07.830Z,79.13
2022-12-23T10:54:07.855Z,79.13
2022-12-23T10:55:07.817Z,79.17
2022-12-23T10:56:07.904Z,79.21
2022-12-23T10:57:07.791Z,79.24
2022-12-23T10:58:07.837Z,79.35
2022-12-23T10:59:07.757Z,79.35
2022-12-23T11:00:07.755Z,79.28
2022-12-23T11:01:15.002Z,79.29
2022-12-23T11:02:08.901Z,79.26
2022-12-23T11:03:07.838Z,79.20
2022-12-23T11:04:07.710Z,79.12
2022-12-23T11:05:07.694Z,79.01
2022-12-23T11:06:07.690Z,79.04
2022-12-23T11:07:42.074Z,79.08
2022-12-23T11:08:08.672Z,79.18
2022-12-23T11:09:07.659Z,79.25
2022-12-23T11:10:07.718Z,79.30
2022-12-23T11:11:07.687Z,79.31
2022-12-23T11:12:07.629Z,79.33
2022-12-23T11:13:07.659Z,79.28
2022-12-23T11:14:07.600Z,79.32
2022-12-23T11:15:07.592Z,79.30
2022-12-23T11:16:07.664Z,79.33
2022-12-23T11:17:07.599Z,79.35
2022-12-23T11:18:07.567Z,79.36
2022-12-23T11:19:07.553Z,79.39
2022-12-23T11:20:07.532Z,79.45
2022-12-23T11:21:07.535Z,79.48
2022-12-23T11:22:07.549Z,79.47
2022-12-23T11:23:07.525Z,79.50
2022-12-23T11:24:07.505Z,79.55
2022-12-23T11:25:07.478Z,79.61
2022-12-23T11:26:07.522Z,79.66
2022-12-23T11:27:07.478Z,79.67
2022-12-23T11:28:07.474Z,79.73
2022-12-23T11:29:07.455Z,79.82
2022-12-23T11:30:07.428Z,79.88
2022-12-23T11:31:07.442Z,79.90
2022-12-23T11:32:07.527Z,79.94
2022-12-23T11:33:07.580Z,80.00
2022-12-23T11:34:07.381Z,79.91
2022-12-23T11:35:07.471Z,79.98
2022-12-23T11:36:07.369Z,80.03
2022-12-23T11:37:07.920Z,80.05
2022-12-23T11:38:07.356Z,80.07
2022-12-23T11:39:07.368Z,80.01
2022-12-23T11:40:07.329Z,79.92
2022-12-23T11:41:07.322Z,79.93
2022-12-23T11:42:07.338Z,79.89
2022-12-23T11:43:07.310Z,79.83
2022-12-23T11:44:07.299Z,79.71
2022-12-23T11:45:07.261Z,79.51
2022-12-23T11:46:07.323Z,79.43
2022-12-23T11:47:07.284Z,79.43
2022-12-23T11:48:07.237Z,79.41
2022-12-23T11:49:07.242Z,79.38
2022-12-23T11:50:07.296Z,79.42
2022-12-23T11:51:07.308Z,79.47
2022-12-23T11:52:07.237Z,79.48
2022-12-23T11:53:07.230Z,79.41
2022-12-23T11:54:07.169Z,79.29
2022-12-23T11:55:07.155Z,79.23
2022-12-23T11:56:07.172Z,79.27
2022-12-23T11:57:07.215Z,79.25
2022-12-23T11:58:07.145Z,79.23
2022-12-23T11:59:07.257Z,79.11
2022-12-23T12:00:07.121Z,79.06
2022-12-23T12:01:07.095Z,79.09
2022-12-23T12:02:07.116Z,79.04
2022-12-23T12:03:07.219Z,79.06
2022-12-23T12:04:07.077Z,79.02
2022-12-23T12:05:07.057Z,78.88
2022-12-23T12:06:07.145Z,78.76
2022-12-23T12:07:07.024Z,78.71
2022-12-23T12:08:07.198Z,78.74
2022-12-23T12:09:07.013Z,78.74
2022-12-23T12:10:07.075Z,78.74
2022-12-23T12:11:07.017Z,78.78
2022-12-23T12:12:07.028Z,78.75
2022-12-23T12:13:07.035Z,78.74
2022-12-23T12:14:06.945Z,78.76
2022-12-23T12:15:06.939Z,78.76
2022-12-23T12:16:06.934Z,78.73
2022-12-23T12:17:06.976Z,78.73
2022-12-23T12:18:06.907Z,78.75
2022-12-23T12:19:06.956Z,78.79
2022-12-23T12:20:06.934Z,78.80
2022-12-23T12:21:06.894Z,78.85
2022-12-23T12:22:06.874Z,78.82
2022-12-23T12:23:06.868Z,78.79
2022-12-23T12:24:20.531Z,78.77
2022-12-23T12:25:07.866Z,78.72
2022-12-23T12:26:07.083Z,78.72
2022-12-23T12:27:06.824Z,78.78
2022-12-23T12:28:06.803Z,78.81
2022-12-23T12:29:07.868Z,78.82
2022-12-23T12:30:08.874Z,78.84
2022-12-23T12:31:06.786Z,78.85
2022-12-23T12:32:06.765Z,78.79
2022-12-23T12:33:06.738Z,78.84
2022-12-23T12:34:06.742Z,78.83
2022-12-23T12:35:06.718Z,78.83
2022-12-23T12:36:06.736Z,78.88
2022-12-23T12:37:06.697Z,78.92
2022-12-23T12:38:06.708Z,78.89
2022-12-23T12:39:06.755Z,78.94
2022-12-23T12:40:06.707Z,78.94
2022-12-23T12:41:06.671Z,78.95
2022-12-23T12:42:06.689Z,78.96
2022-12-23T12:43:06.689Z,78.98
2022-12-23T12:44:06.682Z,78.98
2022-12-23T12:45:06.698Z,78.99
2022-12-23T12:46:06.668Z,79.03
2022-12-23T12:47:27.938Z,79.02
2022-12-23T12:48:16.306Z,79.01
2022-12-23T12:49:07.593Z,79.02
2022-12-23T12:50:06.558Z,79.05
2022-12-23T12:51:06.549Z,79.08
2022-12-23T12:52:06.535Z,79.10